Time;durP1;ratioP1;P1;durP2;ratioP2;P2;SDS_P1;SDS_P2;PMS_P1;PMS_P2;Temp;Humidity;BMP_temperature;BMP_pressure;BME280_temperature;BME280_humidity;BME280_pressure;Samples;Min_cycle;Max_cycle;Signal;HPM_P1;HPM_P2
2021/12/04 00:01:28;;;;;;;3.90;2.70;;;;;;;-3.47;76.62;98496.23;102190;1313;61144;-24
2021/12/04 00:03:57;;;;;;;5.00;2.60;;;;;;;-3.72;77.09;98497.21;102341;1313;61215;-24
2021/12/04 00:06:28;;;;;;;6.60;3.10;;;;;;;-3.96;77.63;98496.95;102289;1314;74693;-24
2021/12/04 00:09:03;;;;;;;8.00;2.40;;;;;;;-4.05;78.48;98494.32;102270;1314;75107;-24
2021/12/04 00:11:33;;;;;;;4.00;2.50;;;;;;;-3.39;77.09;98497.48;102314;1315;74275;-25
2021/12/04 00:14:02;;;;;;;6.20;2.80;;;;;;;-3.08;75.97;98502.23;102322;1316;61205;-25
2021/12/04 00:16:30;;;;;;;5.20;3.00;;;;;;;-3.13;75.46;98502.08;102303;1316;60974;-25
2021/12/04 00:18:59;;;;;;;4.10;2.40;;;;;;;-3.37;75.84;98499.11;102316;1315;75422;-25
2021/12/04 00:21:27;;;;;;;4.40;2.40;;;;;;;-3.65;76.24;98497.33;102198;1316;74547;-24
2021/12/04 00:23:56;;;;;;;4.20;2.80;;;;;;;-3.95;77.19;98494.36;102117;1313;74510;-24
2021/12/04 00:26:24;;;;;;;7.10;3.60;;;;;;;-4.16;77.93;98495.18;102100;1315;61091;-24
2021/12/04 00:28:52;;;;;;;4.20;2.50;;;;;;;-4.05;78.08;98497.88;102156;1313;62080;-24
2021/12/04 00:31:21;;;;;;;7.60;4.00;;;;;;;-3.38;76.50;98502.91;102255;1316;74779;-25
2021/12/04 00:33:50;;;;;;;6.40;3.30;;;;;;;-3.20;75.39;98505.85;102309;1314;76253;-24
2021/12/04 00:50:05;;;;;;;5.20;3.10;;;;;;;-4.33;78.49;98504.80;102341;1316;75048;-25
2021/12/04 00:52:34;;;;;;;6.70;3.30;;;;;;;-3.51;77.09;98504.51;102241;1313;61090;-25
2021/12/04 00:55:04;;;;;;;4.90;2.40;;;;;;;-3.19;75.30;98502.59;102264;1316;61223;-24
2021/12/04 00:57:33;;;;;;;7.70;4.20;;;;;;;-3.33;75.11;98500.37;102087;1314;75675;-25
2021/12/04 01:00:01;;;;;;;5.40;3.30;;;;;;;-3.60;75.65;98501.91;102253;1313;76173;-24
2021/12/04 01:02:30;;;;;;;4.10;1.80;;;;;;;-3.90;75.86;98498.63;102357;1312;74854;-24
2021/12/04 01:04:58;;;;;;;4.00;2.40;;;;;;;-4.19;76.93;98500.33;102258;1312;61122;-24
2021/12/04 01:07:27;;;;;;;6.20;4.20;;;;;;;-4.44;77.50;98502.27;102301;1312;61273;-24
2021/12/04 01:09:55;;;;;;;6.50;3.30;;;;;;;-4.65;78.12;98499.83;102203;1316;74725;-25
2021/12/04 01:12:24;;;;;;;2.70;1.80;;;;;;;-4.80;78.79;98500.55;102135;1312;74877;-24
2021/12/04 01:14:52;;;;;;;6.20;3.30;;;;;;;-4.29;78.84;98500.29;102141;1316;74642;-24
2021/12/04 01:17:21;;;;;;;5.50;4.00;;;;;;;-3.67;77.18;98501.11;102161;1316;61194;-25
2021/12/04 01:19:49;;;;;;;6.80;2.70;;;;;;;-3.53;75.94;98500.34;102194;1313;61144;-25
2021/12/04 01:22:20;;;;;;;5.70;3.70;;;;;;;-3.73;76.65;98499.44;102211;1312;75889;-25
2021/12/04 01:24:54;;;;;;;5.40;3.20;;;;;;;-3.98;77.14;98497.17;102023;1313;75246;-24
2021/12/04 01:27:23;;;;;;;8.10;3.00;;;;;;;-4.20;77.69;98497.34;102102;1312;73492;-24
2021/12/04 01:29:52;;;;;;;8.20;2.90;;;;;;;-4.39;77.92;98494.31;102186;1312;61081;-24
2021/12/04 01:32:20;;;;;;;6.10;3.00;;;;;;;-4.59;78.18;98496.57;102233;1313;61074;-27
2021/12/04 01:34:49;;;;;;;8.20;3.80;;;;;;;-4.79;78.12;98495.45;102221;1313;75339;-25
2021/12/04 01:37:17;;;;;;;6.00;2.80;;;;;;;-4.97;78.96;98493.57;102107;1312;75115;-26
2021/12/04 01:39:45;;;;;;;7.20;3.40;;;;;;;-4.52;78.79;98496.36;102066;1312;74475;-26
2021/12/04 01:42:18;;;;;;;4.10;2.80;;;;;;;-3.64;76.77;98494.73;102063;1314;61320;-23
2021/12/04 01:44:47;;;;;;;6.80;2.10;;;;;;;-3.31;75.33;98493.34;101848;1313;61180;-26
2021/12/04 01:47:20;;;;;;;2.90;2.00;;;;;;;-3.50;75.11;98495.81;102226;1312;74311;-26
2021/12/04 01:49:49;;;;;;;5.50;3.20;;;;;;;-3.77;75.56;98494.48;102280;1312;75208;-27
2021/12/04 01:52:18;;;;;;;4.90;2.20;;;;;;;-4.13;75.99;98494.89;101846;1319;74566;-26
2021/12/04 01:54:47;;;;;;;5.80;3.50;;;;;;;-4.48;77.45;98497.80;102293;1313;61435;-25
2021/12/04 01:57:16;;;;;;;5.00;1.70;;;;;;;-4.77;78.85;98494.89;102187;1312;62141;-25
2021/12/04 01:59:44;;;;;;;4.70;2.80;;;;;;;-4.53;79.00;98498.79;102256;1312;73972;-25
2021/12/04 02:02:12;;;;;;;5.20;2.90;;;;;;;-4.10;77.39;98497.02;102194;1312;76139;-25
2021/12/04 02:04:41;;;;;;;10.90;3.60;;;;;;;-3.98;76.99;98498.00;102226;1313;74533;-23
2021/12/04 02:07:11;;;;;;;5.40;3.00;;;;;;;-4.12;76.78;98497.41;102280;1313;61112;-23
2021/12/04 02:09:40;;;;;;;5.50;3.10;;;;;;;-4.41;78.05;98499.96;102146;1313;61136;-23
2021/12/04 02:12:08;;;;;;;3.90;2.80;;;;;;;-4.51;77.57;98501.77;101774;1314;75348;-23
2021/12/04 02:14:38;;;;;;;7.40;3.60;;;;;;;-4.74;78.46;98502.42;102181;1313;76268;-23
2021/12/04 02:17:07;;;;;;;9.10;3.70;;;;;;;-4.78;79.53;98502.55;101916;1314;74170;-24
2021/12/04 02:19:35;;;;;;;6.30;3.80;;;;;;;-4.12;77.29;98507.08;102026;1313;61176;-23
2021/12/04 02:22:04;;;;;;;7.80;3.10;;;;;;;-3.72;76.14;98507.89;102147;1316;61188;-23
2021/12/04 02:24:32;;;;;;;5.00;2.40;;;;;;;-3.82;75.66;98508.05;102222;1313;75553;-23
2021/12/04 02:27:01;;;;;;;4.20;2.40;;;;;;;-4.08;76.03;98506.79;102151;1312;76090;-25
2021/12/04 02:29:29;;;;;;;2.80;2.10;;;;;;;-4.44;77.58;98508.36;102161;1313;74343;-25
2021/12/04 02:31:58;;;;;;;4.20;2.70;;;;;;;-4.73;78.74;98512.71;101710;1314;61204;-25
2021/12/04 02:34:29;;;;;;;8.00;4.00;;;;;;;-4.74;78.69;98512.06;101941;1312;61169;-25
2021/12/04 02:36:57;;;;;;;3.10;2.80;;;;;;;-4.17;77.26;98510.95;101929;1312;75370;-25
2021/12/04 02:39:29;;;;;;;7.40;4.30;;;;;;;-4.08;76.27;98512.75;102068;1312;74883;-24
2021/12/04 02:41:58;;;;;;;3.60;2.90;;;;;;;-4.28;76.70;98516.02;101773;1314;74383;-25
2021/12/04 02:44:34;;;;;;;3.40;2.20;;;;;;;-4.54;77.83;98511.19;102137;1313;61107;-25
2021/12/04 02:47:03;;;;;;;7.20;3.60;;;;;;;-4.89;78.97;98511.29;101931;1314;61192;-25
2021/12/04 02:49:32;;;;;;;1.90;1.80;;;;;;;-5.02;80.00;98509.27;102159;1314;75680;-25
2021/12/04 02:52:02;;;;;;;5.60;2.60;;;;;;;-4.58;79.08;98508.08;102127;1317;74610;-25
2021/12/04 02:54:32;;;;;;;8.00;4.90;;;;;;;-4.25;76.91;98511.70;102201;1312;72920;-24
2021/12/04 02:57:05;;;;;;;4.40;2.20;;;;;;;-4.33;76.93;98513.81;102142;1312;61222;-25
2021/12/04 02:59:34;;;;;;;4.70;2.90;;;;;;;-4.70;78.24;98511.80;101761;1316;61357;-25
2021/12/04 03:02:07;;;;;;;4.30;3.40;;;;;;;-4.89;78.64;98514.51;102138;1312;75607;-25
2021/12/04 03:04:35;;;;;;;4.50;2.20;;;;;;;-5.11;79.34;98508.83;102100;1317;76172;-25
2021/12/04 03:07:04;;;;;;;5.30;3.10;;;;;;;-4.96;79.44;98512.84;102141;1312;74184;-25
2021/12/04 03:09:33;;;;;;;9.90;4.80;;;;;;;-4.52;78.07;98512.80;102180;1312;61114;-25
2021/12/04 03:12:03;;;;;;;4.90;3.90;;;;;;;-4.43;77.28;98512.08;102188;1312;61201;-25
2021/12/04 03:14:31;;;;;;;4.10;3.00;;;;;;;-4.64;77.75;98515.00;102179;1314;76054;-25
2021/12/04 03:17:00;;;;;;;4.40;3.00;;;;;;;-4.82;78.11;98517.88;102274;1313;75985;-25
2021/12/04 03:19:28;;;;;;;10.20;5.20;;;;;;;-4.99;78.55;98521.40;102201;1313;74433;-25
2021/12/04 03:21:57;;;;;;;7.80;3.10;;;;;;;-5.12;78.83;98519.52;102156;1313;62292;-25
2021/12/04 03:24:26;;;;;;;9.20;4.00;;;;;;;-4.71;77.97;98522.64;102261;1317;61660;-25
2021/12/04 03:26:55;;;;;;;7.20;2.80;;;;;;;-4.34;76.61;98523.85;102238;1316;75358;-25
2021/12/04 03:29:27;;;;;;;7.40;3.20;;;;;;;-4.41;76.56;98522.84;102194;1313;76207;-25
2021/12/04 03:32:17;;;;;;;4.90;2.50;;;;;;;-4.55;76.89;98522.71;102299;1314;74811;-25
2021/12/04 03:42:53;;;;;;;6.80;3.20;;;;;;;-5.17;78.56;98520.16;102130;1314;75455;-25
2021/12/04 03:45:22;;;;;;;8.40;4.00;;;;;;;-4.37;76.97;98527.30;102145;1313;73461;-25
2021/12/04 03:47:52;;;;;;;6.50;4.20;;;;;;;-4.02;75.35;98532.74;102141;1313;61424;-25
2021/12/04 03:50:20;;;;;;;4.90;2.90;;;;;;;-4.12;75.24;98532.00;102102;1316;61143;-25
2021/12/04 03:52:49;;;;;;;8.30;4.20;;;;;;;-4.38;75.80;98526.98;102190;1312;75622;-25
2021/12/04 03:55:17;;;;;;;7.40;3.60;;;;;;;-4.64;76.50;98526.21;102172;1313;76214;-25
2021/12/04 03:57:46;;;;;;;6.20;3.80;;;;;;;-4.90;76.38;98523.67;102266;1310;74574;-25
2021/12/04 04:00:15;;;;;;;7.60;3.70;;;;;;;-5.14;76.93;98518.55;102259;1313;61130;-25
2021/12/04 04:02:44;;;;;;;6.40;3.50;;;;;;;-5.35;77.69;98514.53;102297;1312;61080;-25
2021/12/04 04:05:13;;;;;;;7.40;3.80;;;;;;;-5.50;78.16;98512.51;102274;1312;74691;-25
2021/12/04 04:07:41;;;;;;;7.60;4.50;;;;;;;-5.01;77.69;98509.90;102306;1313;74975;-26
2021/12/04 04:10:09;;;;;;;5.00;3.10;;;;;;;-4.17;75.78;98511.31;102165;1313;74237;-25
2021/12/04 04:12:38;;;;;;;8.60;4.30;;;;;;;-3.98;74.60;98512.63;102207;1312;62113;-25
2021/12/04 04:15:06;;;;;;;5.40;3.20;;;;;;;-4.14;74.59;98513.75;102083;1312;61800;-25
2021/12/04 04:17:42;;;;;;;6.30;3.70;;;;;;;-4.42;75.29;98512.53;102176;1313;75610;-25
2021/12/04 04:20:12;;;;;;;6.10;3.00;;;;;;;-4.75;75.91;98510.74;102089;1313;76145;-25
2021/12/04 04:22:42;;;;;;;9.00;4.20;;;;;;;-5.10;76.94;98512.87;102180;1315;74678;-25
2021/12/04 04:25:12;;;;;;;7.00;3.70;;;;;;;-5.33;78.06;98507.70;102267;1312;61204;-25
2021/12/04 04:27:47;;;;;;;6.50;4.10;;;;;;;-5.48;77.81;98510.45;101856;1317;61202;-25
2021/12/04 04:30:18;;;;;;;7.40;3.80;;;;;;;-5.66;77.99;98509.85;102040;1312;75411;-25
2021/12/04 04:32:49;;;;;;;9.80;5.10;;;;;;;-5.81;78.59;98508.36;101882;1313;75186;-25
2021/12/04 04:35:20;;;;;;;10.10;6.40;;;;;;;-5.34;78.34;98509.73;102194;1313;73622;-25
2021/12/04 04:58:14;;;;;;;4.00;3.10;;;;;;;-5.59;79.32;98517.82;102234;1312;76086;-25
2021/12/04 05:13:39;;;;;;;4.00;1.90;;;;;;;-5.89;79.04;98501.95;102115;1313;76100;-25
2021/12/04 05:16:13;;;;;;;4.90;2.50;;;;;;;-5.91;79.89;98502.85;102193;1313;74693;-25
2021/12/04 05:18:52;;;;;;;4.70;2.90;;;;;;;-5.17;77.42;98502.05;102214;1314;61542;-25
2021/12/04 05:21:21;;;;;;;5.60;2.80;;;;;;;-4.83;75.50;98504.02;102260;1317;61528;-25
2021/12/04 05:23:51;;;;;;;9.10;4.10;;;;;;;-4.96;75.45;98503.89;102306;1314;75549;-25
2021/12/04 05:26:26;;;;;;;7.60;3.80;;;;;;;-5.24;76.35;98502.58;102210;1316;76134;-25
2021/12/04 05:28:58;;;;;;;8.20;3.90;;;;;;;-5.56;77.65;98503.52;102091;1312;74423;-25
2021/12/04 05:31:27;;;;;;;6.40;2.70;;;;;;;-5.81;78.64;98510.73;102044;1312;61113;-25
2021/12/04 05:33:55;;;;;;;7.00;2.90;;;;;;;-6.01;79.34;98508.17;101704;1316;61849;-25
2021/12/04 05:36:24;;;;;;;8.40;3.50;;;;;;;-5.84;78.83;98507.25;102027;1312;75871;-25
2021/12/04 05:38:52;;;;;;;5.50;3.00;;;;;;;-5.12;77.24;98507.34;102085;1316;76059;-25
2021/12/04 05:41:20;;;;;;;4.20;2.70;;;;;;;-4.89;75.72;98504.05;102234;1312;73388;-25
2021/12/04 05:43:49;;;;;;;9.60;4.20;;;;;;;-4.98;75.68;98501.21;102102;1312;61083;-25
2021/12/04 05:46:20;;;;;;;5.40;3.20;;;;;;;-5.31;76.44;98497.83;102133;1312;61063;-25
2021/12/04 05:48:54;;;;;;;5.00;2.40;;;;;;;-5.57;77.28;98498.80;102141;1312;74651;-25
2021/12/04 05:56:43;;;;;;;5.40;2.80;;;;;;;-5.73;79.30;98508.48;101969;1312;212230;-25
2021/12/04 05:59:11;;;;;;;15.90;4.20;;;;;;;-5.25;77.07;98510.22;102084;1316;61908;-25
2021/12/04 06:01:40;;;;;;;3.50;2.30;;;;;;;-5.15;76.03;98514.02;102096;1312;75376;-25
2021/12/04 06:04:08;;;;;;;1.60;1.50;;;;;;;-5.30;76.54;98513.38;102190;1313;75072;-25
2021/12/04 06:06:36;;;;;;;3.30;2.80;;;;;;;-5.46;77.51;98512.95;102087;1312;73278;-25
2021/12/04 06:09:05;;;;;;;6.20;3.40;;;;;;;-5.69;78.17;98516.69;102011;1312;61222;-25
2021/12/04 06:11:33;;;;;;;2.60;2.20;;;;;;;-5.83;78.47;98516.18;102131;1313;61384;-25
2021/12/04 06:14:02;;;;;;;7.00;3.20;;;;;;;-5.72;78.94;98518.96;102146;1313;73835;-25
2021/12/04 06:16:31;;;;;;;7.70;4.30;;;;;;;-4.99;76.26;98522.05;102237;1316;75832;-25
2021/12/04 06:19:09;;;;;;;4.10;2.80;;;;;;;-4.75;75.46;98524.98;102119;1312;74621;-25
2021/12/04 06:24:25;;;;;;;7.60;4.40;;;;;;;-5.10;76.00;98528.11;102033;1312;61905;-25
2021/12/04 06:26:53;;;;;;;4.90;2.90;;;;;;;-5.37;76.93;98527.25;102164;1312;75365;-25
2021/12/04 06:29:24;;;;;;;4.90;3.00;;;;;;;-5.64;78.28;98529.44;101879;1313;75489;-25
2021/12/04 06:31:52;;;;;;;5.90;3.60;;;;;;;-5.66;78.98;98524.73;102187;1316;74384;-25
2021/12/04 06:34:20;;;;;;;5.10;3.10;;;;;;;-5.10;77.24;98527.25;102083;1312;61212;-25
2021/12/04 06:36:49;;;;;;;6.00;3.50;;;;;;;-4.74;75.71;98528.67;102139;1312;61155;-25
2021/12/04 06:39:17;;;;;;;10.20;5.30;;;;;;;-4.66;75.38;98529.81;102005;1317;72774;-25
2021/12/04 06:41:48;;;;;;;4.70;3.10;;;;;;;-4.69;75.31;98528.55;102069;1313;75686;-25
2021/12/04 06:44:16;;;;;;;9.70;5.10;;;;;;;-4.80;75.51;98527.64;102097;1313;74387;-25
2021/12/04 06:46:44;;;;;;;2.40;2.00;;;;;;;-4.87;75.68;98527.36;102168;1313;61327;-25
2021/12/04 06:49:20;;;;;;;4.10;2.80;;;;;;;-5.00;76.35;98534.44;102069;1313;61195;-25
2021/12/04 06:51:52;;;;;;;6.00;3.20;;;;;;;-4.99;76.74;98539.67;102146;1313;75657;-25
2021/12/04 06:54:25;;;;;;;12.60;7.20;;;;;;;-4.98;76.60;98542.87;102075;1313;75885;-26
2021/12/04 06:56:53;;;;;;;6.10;4.10;;;;;;;-4.71;76.46;98539.11;102202;1312;74170;-25
2021/12/04 06:59:33;;;;;;;5.30;3.90;;;;;;;-4.08;74.26;98540.54;102263;1317;61209;-25
2021/12/04 07:02:01;;;;;;;10.80;5.70;;;;;;;-3.73;72.64;98540.33;102276;1312;61208;-23
2021/12/04 07:04:34;;;;;;;7.90;4.60;;;;;;;-3.86;72.39;98541.22;102309;1313;75631;-25
2021/12/04 07:07:05;;;;;;;9.10;5.70;;;;;;;-4.02;73.08;98538.33;102182;1313;75874;-27
2021/12/04 07:09:35;;;;;;;7.20;4.30;;;;;;;-4.25;73.89;98533.59;102162;1313;74504;-26
2021/12/04 07:12:04;;;;;;;10.60;6.30;;;;;;;-4.40;74.28;98533.33;102102;1313;61140;-25
2021/12/04 07:14:32;;;;;;;9.20;4.00;;;;;;;-4.49;75.10;98537.48;101739;1314;62378;-24
2021/12/04 07:17:02;;;;;;;11.70;4.90;;;;;;;-4.53;75.01;98533.17;102065;1313;75669;-24
2021/12/04 07:19:31;;;;;;;11.20;6.00;;;;;;;-4.66;75.12;98532.19;102016;1313;74783;-24
2021/12/04 07:23:09;;;;;;;11.90;6.30;;;;;;;-4.69;75.75;98526.52;98930;1353;600831;-26
2021/12/04 07:25:38;;;;;;;7.40;4.70;;;;;;;-4.75;76.14;98520.05;101337;1330;61157;-25
2021/12/04 07:28:06;;;;;;;12.30;5.30;;;;;;;-4.71;76.49;98524.02;101334;1324;61219;-25
2021/12/04 07:30:34;;;;;;;12.10;6.50;;;;;;;-4.24;75.91;98526.41;102242;1319;73328;-24
2021/12/04 07:33:03;;;;;;;9.60;5.40;;;;;;;-3.32;73.03;98530.02;102276;1314;76003;-24
2021/12/04 07:35:31;;;;;;;7.60;5.00;;;;;;;-2.83;71.32;98533.31;102242;1314;73239;-25
2021/12/04 07:38:00;;;;;;;9.00;5.40;;;;;;;-2.81;70.53;98531.05;102116;1317;213029;-24
2021/12/04 07:40:28;;;;;;;9.80;5.10;;;;;;;-2.95;71.16;98532.70;102319;1316;61307;-25
2021/12/04 07:42:57;;;;;;;8.40;5.50;;;;;;;-3.12;70.77;98530.89;102306;1316;73957;-25
2021/12/04 07:45:25;;;;;;;6.70;3.60;;;;;;;-3.31;71.61;98531.01;102303;1316;75777;-25
2021/12/04 07:47:53;;;;;;;15.10;5.40;;;;;;;-3.35;72.46;98525.89;102272;1313;74260;-25
2021/12/04 07:50:22;;;;;;;4.60;3.40;;;;;;;-3.20;72.09;98525.73;102243;1314;61122;-25
2021/12/04 07:52:50;;;;;;;15.40;7.20;;;;;;;-3.25;72.09;98523.69;102259;1319;61046;-25
2021/12/04 07:55:18;;;;;;;6.90;4.90;;;;;;;-3.19;72.40;98527.92;102322;1314;74864;-25
2021/12/04 07:57:47;;;;;;;14.00;8.20;;;;;;;-3.16;72.65;98525.60;102258;1314;76458;-25
2021/12/04 08:00:16;;;;;;;9.70;5.00;;;;;;;-3.04;72.43;98520.09;102264;1317;74481;-25
2021/12/04 08:02:44;;;;;;;6.20;4.40;;;;;;;-2.88;72.06;98520.24;102251;1314;61194;-24
2021/12/04 08:05:13;;;;;;;10.50;5.50;;;;;;;-2.85;71.67;98519.11;102311;1317;62270;-25
2021/12/04 08:07:42;;;;;;;5.30;4.00;;;;;;;-2.82;72.02;98524.77;102313;1314;74759;-25
2021/12/04 08:10:13;;;;;;;9.70;5.50;;;;;;;-2.72;71.98;98522.20;102292;1319;76242;-24
2021/12/04 08:12:41;;;;;;;9.20;4.90;;;;;;;-2.60;71.79;98522.80;102252;1319;75587;-24
2021/12/04 08:15:11;;;;;;;12.50;7.40;;;;;;;-2.52;72.07;98527.98;102297;1317;61197;-24
2021/12/04 08:17:41;;;;;;;10.30;6.40;;;;;;;-2.35;71.37;98530.40;102271;1319;61173;-25
2021/12/04 08:20:18;;;;;;;12.40;6.40;;;;;;;-2.23;71.38;98532.88;102294;1314;74928;-25
2021/12/04 08:22:47;;;;;;;12.40;5.70;;;;;;;-2.23;70.86;98532.38;101954;1316;76218;-24
2021/12/04 08:25:16;;;;;;;10.90;5.30;;;;;;;-2.03;71.10;98527.53;102295;1316;74404;-23
2021/12/04 08:27:46;;;;;;;4.80;3.70;;;;;;;-1.69;70.66;98526.02;102283;1319;61290;-23
2021/12/04 08:30:17;;;;;;;8.50;5.00;;;;;;;-1.47;69.63;98525.34;102308;1319;61063;-24
2021/12/04 08:32:46;;;;;;;10.70;6.40;;;;;;;-1.47;69.03;98524.86;102076;1319;71792;-24
2021/12/04 08:35:17;;;;;;;7.50;4.60;;;;;;;-1.47;68.99;98521.95;102328;1316;75210;-24
2021/12/04 08:37:46;;;;;;;21.40;9.90;;;;;;;-1.64;69.41;98513.74;102264;1317;72956;-24
2021/12/04 08:40:15;;;;;;;12.60;6.30;;;;;;;-1.57;69.80;98510.25;102260;1313;61323;-24
2021/12/04 08:42:44;;;;;;;12.80;7.00;;;;;;;-1.52;69.72;98513.44;102173;1317;61059;-24
2021/12/04 08:45:13;;;;;;;10.50;5.10;;;;;;;-1.37;69.77;98506.05;102149;1319;75131;-24
2021/12/04 08:47:41;;;;;;;16.90;9.50;;;;;;;-1.10;69.05;98513.61;102274;1319;74657;-24
2021/12/04 08:50:12;;;;;;;17.50;9.00;;;;;;;-1.18;68.48;98512.21;102282;1314;73154;-24
2021/12/04 08:52:41;;;;;;;15.20;7.70;;;;;;;-1.00;68.67;98511.13;102292;1313;61157;-24
2021/12/04 08:55:12;;;;;;;18.80;8.50;;;;;;;-0.91;67.97;98512.81;102119;1317;61996;-25
2021/12/04 08:57:41;;;;;;;10.10;6.40;;;;;;;-0.70;68.76;98506.62;102098;1313;74815;-25
2021/12/04 09:00:15;;;;;;;17.00;8.60;;;;;;;-0.63;68.46;98506.68;102145;1319;76195;-25
2021/12/04 09:02:43;;;;;;;11.70;6.80;;;;;;;-0.33;68.20;98502.63;102084;1319;74769;-25
2021/12/04 09:05:13;;;;;;;9.70;4.40;;;;;;;-0.03;67.43;98502.10;102147;1314;61127;-24
2021/12/04 09:07:42;;;;;;;15.40;8.50;;;;;;;0.17;66.58;98499.26;101881;1317;62087;-25
2021/12/04 09:10:11;;;;;;;19.00;9.20;;;;;;;0.21;65.72;98496.20;102159;1319;73164;-25
2021/12/04 09:12:40;;;;;;;9.70;5.40;;;;;;;0.31;65.47;98495.70;101947;1316;76181;-25
2021/12/04 09:15:15;;;;;;;7.60;4.30;;;;;;;0.37;65.31;98486.52;102128;1319;74427;-25
2021/12/04 09:17:43;;;;;;;13.60;6.50;;;;;;;0.40;65.01;98482.99;101772;1316;61176;-24
2021/12/04 09:20:12;;;;;;;13.20;7.00;;;;;;;0.46;64.61;98481.34;102191;1314;61916;-25
2021/12/04 09:22:41;;;;;;;8.70;5.20;;;;;;;0.49;64.79;98475.20;102142;1314;74722;-25
2021/12/04 09:25:13;;;;;;;14.70;8.20;;;;;;;0.53;64.86;98468.84;102071;1313;76185;-24
2021/12/04 09:27:54;;;;;;;15.10;8.80;;;;;;;0.86;65.04;98465.17;101965;1319;74500;-24
2021/12/04 10:32:02;;;;;;;9.70;5.20;;;;;;;1.15;64.29;98411.02;102024;1317;61170;-23
2021/12/04 10:33:09;;;;;;;12.70;6.00;;;;;;;1.16;64.09;98407.74;102039;1316;76265;-24
2021/12/04 10:35:38;;;;;;;7.60;4.70;;;;;;;1.30;64.21;98403.42;101994;1319;74687;-23
2021/12/04 10:38:08;;;;;;;8.00;5.00;;;;;;;1.45;64.05;98393.17;102066;1317;61375;-23
2021/12/04 10:40:41;;;;;;;10.30;5.80;;;;;;;1.61;63.71;98387.53;102050;1313;62095;-24
2021/12/04 10:43:13;;;;;;;16.60;7.80;;;;;;;1.66;63.22;98379.58;102077;1316;74828;-24
2021/12/04 10:45:45;;;;;;;9.30;6.50;;;;;;;1.69;62.74;98376.16;102064;1319;76080;-24
2021/12/04 10:48:20;;;;;;;12.10;6.80;;;;;;;1.68;62.86;98373.80;101686;1316;74488;-24
2021/12/04 10:53:33;;;;;;;8.20;5.00;;;;;;;1.57;62.97;98369.60;101928;1316;61185;-24
2021/12/04 10:56:22;;;;;;;9.60;5.60;;;;;;;1.47;63.44;98365.69;101846;1313;75014;-24
2021/12/04 11:42:59;;;;;;;6.30;4.00;;;;;;;1.61;63.51;98312.09;102226;1313;72414;-24
2021/12/04 11:45:39;;;;;;;12.00;6.30;;;;;;;1.53;63.98;98306.89;102067;1317;61151;-24
2021/12/04 11:48:08;;;;;;;9.50;5.60;;;;;;;1.60;64.61;98306.67;102035;1317;61220;-24
2021/12/04 11:50:41;;;;;;;8.50;5.40;;;;;;;1.64;64.34;98306.92;102280;1314;75619;-24
2021/12/04 11:53:17;;;;;;;8.20;4.20;;;;;;;1.60;64.37;98303.06;102271;1317;76080;-24
2021/12/04 11:55:46;;;;;;;11.70;5.30;;;;;;;1.55;64.77;98300.44;102130;1314;73434;-24
2021/12/04 11:58:21;;;;;;;12.20;5.80;;;;;;;1.54;65.00;98304.25;102191;1313;61810;-24
2021/12/04 12:00:52;;;;;;;6.90;3.20;;;;;;;1.43;65.21;98302.98;102314;1313;61052;-24
2021/12/04 12:03:24;;;;;;;7.70;5.00;;;;;;;1.37;65.37;98302.95;102035;1317;75635;-24
2021/12/04 12:05:58;;;;;;;12.00;4.70;;;;;;;1.26;65.94;98301.52;102226;1314;75894;-24
2021/12/04 12:08:28;;;;;;;;;;;;;;;1.61;66.20;98300.60;101727;1317;71635;-24
2021/12/04 12:11:33;;;;;;;2.80;2.10;;;;;;;2.46;63.70;98296.05;102156;1314;61313;-24
2021/12/04 12:14:10;;;;;;;6.20;3.80;;;;;;;2.64;62.39;98295.83;102164;1313;61182;-24
2021/12/04 12:16:47;;;;;;;6.90;4.10;;;;;;;2.16;63.24;98297.48;101693;1320;74908;-24
2021/12/04 12:19:28;;;;;;;6.40;3.80;;;;;;;2.17;63.94;98294.48;101675;1313;76282;-24
2021/12/04 12:22:19;;;;;;;12.00;4.90;;;;;;;1.97;63.64;98295.32;102028;1314;73667;-24
2021/12/04 12:36:09;;;;;;;9.30;4.70;;;;;;;0.75;67.41;98285.63;102145;1313;74345;-24
2021/12/04 12:38:49;;;;;;;9.30;4.20;;;;;;;0.68;67.83;98286.13;102121;1314;61918;-23
2021/12/04 12:41:24;;;;;;;8.30;5.30;;;;;;;1.02;67.64;98287.06;102279;1313;61111;-24
2021/12/04 12:44:04;;;;;;;8.40;4.70;;;;;;;1.46;65.99;98282.27;101963;1317;74699;-24
2021/12/04 12:46:45;;;;;;;5.60;3.40;;;;;;;1.45;66.12;98278.73;102299;1314;75239;-24
2021/12/04 12:49:38;;;;;;;4.10;3.30;;;;;;;1.31;66.45;98281.08;102066;1317;74468;-24
2021/12/04 12:52:19;;;;;;;8.80;5.40;;;;;;;1.02;67.35;98282.79;102236;1313;61198;-24
2021/12/04 12:55:02;;;;;;;10.20;5.30;;;;;;;0.83;67.86;98283.51;102266;1314;61949;-24
2021/12/04 12:57:42;;;;;;;13.30;5.50;;;;;;;0.63;68.40;98281.83;102283;1317;75666;-24
2021/12/04 13:14:16;;;;;;;5.60;3.30;;;;;;;1.16;67.87;98276.22;101727;1317;76087;-24
2021/12/04 13:16:50;;;;;;;7.80;3.10;;;;;;;0.95;68.14;98276.36;101692;1313;73422;-24
2021/12/04 13:19:20;;;;;;;4.20;2.20;;;;;;;0.72;68.90;98266.63;101852;1317;61207;-24
2021/12/04 13:21:50;;;;;;;11.10;5.80;;;;;;;0.49;69.16;98266.51;101942;1317;61472;-24
2021/12/04 13:24:21;;;;;;;14.20;5.20;;;;;;;0.26;69.59;98267.36;101906;1316;75666;-23
2021/12/04 13:26:51;;;;;;;9.40;4.40;;;;;;;0.05;70.43;98263.27;101655;1317;76308;-23
2021/12/04 13:29:23;;;;;;;6.70;4.10;;;;;;;-0.12;70.66;98259.20;101973;1314;73371;-24
2021/12/04 13:31:58;;;;;;;6.30;3.20;;;;;;;-0.11;71.91;98255.04;101879;1313;61788;-24
2021/12/04 13:34:28;;;;;;;8.40;3.70;;;;;;;0.71;70.68;98257.98;101667;1316;61334;-23
2021/12/04 13:36:58;;;;;;;8.70;4.40;;;;;;;1.15;68.70;98255.79;101810;1319;76026;-23
2021/12/04 13:39:26;;;;;;;14.40;5.00;;;;;;;1.10;68.59;98255.39;102182;1314;74813;-23
2021/12/04 13:41:58;;;;;;;9.50;3.70;;;;;;;0.84;68.83;98252.20;102197;1317;74390;-24
2021/12/04 13:44:28;;;;;;;3.20;1.90;;;;;;;0.52;69.33;98253.52;102054;1314;61679;-24
2021/12/04 13:47:05;;;;;;;4.90;2.70;;;;;;;0.20;70.10;98244.77;101854;1313;61797;-24
2021/12/04 13:49:40;;;;;;;7.90;3.80;;;;;;;-0.13;70.72;98246.25;101964;1317;75653;-23
2021/12/04 13:52:10;;;;;;;6.80;3.90;;;;;;;-0.46;71.71;98244.66;101873;1317;75133;-23
2021/12/04 13:54:44;;;;;;;9.40;4.20;;;;;;;-0.81;72.14;98240.53;101708;1313;71447;-24
2021/12/04 13:57:13;;;;;;;6.90;3.60;;;;;;;-1.09;73.13;98239.65;101721;1314;61787;-26
2021/12/04 13:59:42;;;;;;;6.40;3.50;;;;;;;-0.71;73.13;98242.45;101927;1313;61313;-24
2021/12/04 14:02:26;;;;;;;10.10;5.00;;;;;;;-0.17;71.85;98242.90;101932;1313;74795;-24
2021/12/04 14:05:04;;;;;;;6.80;4.00;;;;;;;-0.15;71.24;98242.80;102057;1313;76313;-24
2021/12/04 14:07:33;;;;;;;3.80;2.40;;;;;;;-0.46;71.14;98241.56;102161;1313;74407;-24
2021/12/04 14:10:19;;;;;;;5.60;3.10;;;;;;;-0.81;72.22;98240.70;102182;1313;61328;-28
2021/12/04 14:12:51;;;;;;;9.50;4.20;;;;;;;-1.20;72.87;98236.52;102108;1313;62674;-26
2021/12/04 14:15:21;;;;;;;7.70;4.30;;;;;;;-1.50;73.83;98235.34;102151;1314;75604;-25
2021/12/04 14:17:50;;;;;;;8.00;4.50;;;;;;;-1.77;74.57;98232.79;102002;1314;75152;-26
2021/12/04 14:20:22;;;;;;;14.40;9.90;;;;;;;-1.98;75.95;98231.15;101900;1314;73020;-24
2021/12/04 14:22:52;;;;;;;9.10;5.70;;;;;;;-2.10;76.89;98231.48;101978;1313;61757;-25
2021/12/04 14:25:23;;;;;;;9.50;5.10;;;;;;;-1.52;76.80;98233.90;102144;1313;61113;-24
2021/12/04 14:27:52;;;;;;;13.50;7.50;;;;;;;-0.81;75.19;98235.23;102264;1313;76800;-27
2021/12/04 14:30:26;;;;;;;15.00;8.50;;;;;;;-0.69;74.38;98235.72;102318;1313;75155;-27
2021/12/04 14:32:56;;;;;;;14.90;8.00;;;;;;;-0.87;73.99;98230.55;102282;1314;74174;-29
2021/12/04 14:35:33;;;;;;;10.10;5.20;;;;;;;-1.18;74.18;98228.43;101982;1316;61193;-25
2021/12/04 14:38:03;;;;;;;8.20;4.90;;;;;;;-1.53;74.42;98226.27;102302;1313;61191;-26
2021/12/04 14:40:41;;;;;;;9.20;4.40;;;;;;;-1.86;75.46;98227.73;102277;1313;75416;-23
2021/12/04 14:43:11;;;;;;;7.90;4.80;;;;;;;-2.15;75.96;98225.58;102175;1317;75868;-24
2021/12/04 14:45:41;;;;;;;7.80;4.10;;;;;;;-2.42;76.44;98222.81;102276;1313;74536;-23
2021/12/04 14:48:21;;;;;;;7.30;2.80;;;;;;;-2.64;77.51;98221.29;102286;1313;61137;-23
2021/12/04 14:51:14;;;;;;;8.80;4.10;;;;;;;-2.09;77.90;98220.55;101751;1317;61953;-24
2021/12/04 14:53:51;;;;;;;7.90;3.70;;;;;;;-1.29;75.65;98219.09;102238;1313;72901;-24
2021/12/04 14:56:21;;;;;;;13.70;4.30;;;;;;;-1.25;75.23;98219.22;102333;1313;74924;-24
2021/12/04 14:58:50;;;;;;;5.20;3.20;;;;;;;-1.45;75.67;98217.58;102243;1313;75111;-23